createdAt,value
2023-03-16T00:00:17.617Z,10.23
2023-03-16T00:02:44.687Z,8.95
2023-03-16T00:05:13.056Z,10.77
2023-03-16T00:07:42.003Z,11.80
2023-03-16T00:10:12.349Z,13.73
2023-03-16T00:12:39.566Z,10.48
2023-03-16T00:15:06.882Z,13.00
2023-03-16T00:17:34.815Z,10.70
2023-03-16T00:20:06.552Z,11.70
2023-03-16T00:22:34.097Z,10.35
2023-03-16T00:25:00.924Z,14.57
2023-03-16T00:27:27.801Z,9.85
2023-03-16T00:29:57.641Z,13.30
2023-03-16T00:32:32.004Z,11.45
2023-03-16T00:34:59.253Z,12.13
2023-03-16T00:37:26.924Z,10.07
2023-03-16T00:39:57.724Z,11.60
2023-03-16T00:42:27.833Z,12.77
2023-03-16T00:44:57.635Z,9.48
2023-03-16T00:47:26.585Z,12.95
2023-03-16T00:49:53.171Z,10.60
2023-03-16T00:52:20.372Z,14.63
2023-03-16T00:54:47.390Z,10.43
2023-03-16T00:57:18.773Z,15.63
2023-03-16T00:59:46.484Z,12.93
2023-03-16T01:02:14.389Z,9.18
2023-03-16T01:04:42.966Z,13.10
2023-03-16T01:07:13.321Z,9.95
2023-03-16T01:09:41.458Z,12.35
2023-03-16T01:12:11.558Z,11.38
2023-03-16T01:14:38.997Z,14.02
2023-03-16T01:17:08.624Z,13.07
2023-03-16T01:19:38.582Z,13.07
2023-03-16T01:22:06.528Z,11.13
2023-03-16T01:24:34.916Z,13.00
2023-03-16T01:27:01.934Z,9.73
2023-03-16T01:29:28.581Z,9.60
2023-03-16T01:31:57.867Z,9.43
2023-03-16T01:34:24.836Z,8.95
2023-03-16T01:36:52.214Z,9.60
2023-03-16T01:39:29.064Z,10.70
2023-03-16T01:41:55.823Z,11.25
2023-03-16T01:44:28.246Z,11.98
2023-03-16T01:46:54.988Z,9.38
2023-03-16T01:49:26.837Z,9.20
2023-03-16T01:52:02.535Z,11.30
2023-03-16T01:54:35.035Z,8.27
2023-03-16T01:57:08.278Z,8.63
2023-03-16T01:59:43.197Z,9.20
2023-03-16T02:02:16.425Z,9.02
2023-03-16T02:04:49.152Z,10.35
2023-03-16T02:07:20.742Z,7.70
2023-03-16T02:09:51.742Z,10.07
2023-03-16T02:12:19.371Z,7.75
2023-03-16T02:14:51.740Z,9.98
2023-03-16T02:17:22.050Z,7.60
2023-03-16T02:20:23.236Z,10.73
2023-03-16T02:22:55.489Z,8.63
2023-03-16T02:25:42.372Z,8.38
2023-03-16T02:30:48.098Z,9.85
2023-03-16T02:33:17.538Z,7.90
2023-03-16T02:35:44.698Z,7.50
2023-03-16T02:38:11.411Z,8.52
2023-03-16T02:40:54.056Z,8.35
2023-03-16T02:43:27.353Z,7.60
2023-03-16T02:46:06.284Z,6.75
2023-03-16T02:48:43.328Z,10.18
2023-03-16T02:51:11.369Z,8.40
2023-03-16T02:53:38.253Z,7.32
2023-03-16T02:56:05.855Z,8.15
2023-03-16T02:58:34.986Z,6.88
2023-03-16T03:01:05.268Z,5.40
2023-03-16T03:03:34.662Z,6.05
2023-03-16T03:06:02.224Z,7.22
2023-03-16T03:08:34.055Z,10.20
2023-03-16T03:11:01.086Z,6.78
2023-03-16T03:13:27.793Z,8.00
2023-03-16T03:15:54.500Z,6.57
2023-03-16T03:18:27.505Z,7.60
2023-03-16T03:20:54.177Z,7.03
2023-03-16T03:23:21.126Z,7.38
2023-03-16T03:25:48.118Z,11.20
2023-03-16T03:28:16.131Z,7.13
2023-03-16T03:30:43.383Z,7.65
2023-03-16T03:33:10.167Z,6.75
2023-03-16T03:35:37.029Z,5.70
2023-03-16T03:38:03.743Z,7.00
2023-03-16T03:40:30.917Z,9.25
2023-03-16T03:43:01.572Z,5.45
2023-03-16T03:45:29.798Z,7.85
2023-03-16T03:47:56.598Z,8.15
2023-03-16T03:50:24.153Z,5.97
2023-03-16T03:53:09.409Z,6.38
2023-03-16T03:55:53.603Z,7.40
2023-03-16T03:58:21.351Z,7.82
2023-03-16T04:00:47.948Z,6.55
2023-03-16T04:03:14.918Z,6.97
2023-03-16T04:05:44.701Z,6.35
2023-03-16T04:08:12.593Z,9.68
2023-03-16T04:10:39.615Z,7.25
2023-03-16T04:13:06.252Z,5.78
2023-03-16T04:15:35.178Z,6.63
2023-03-16T04:18:08.258Z,9.00
2023-03-16T04:20:34.981Z,7.05
2023-03-16T04:23:01.771Z,5.78
2023-03-16T04:25:30.691Z,6.07
2023-03-16T04:27:58.581Z,8.18
2023-03-16T04:30:30.971Z,7.15
2023-03-16T04:33:08.740Z,6.90
2023-03-16T04:35:35.464Z,6.80
2023-03-16T04:38:02.404Z,7.03
2023-03-16T04:40:38.402Z,7.90
2023-03-16T04:43:13.727Z,5.70
2023-03-16T04:45:41.673Z,5.90
2023-03-16T04:48:10.504Z,6.95
2023-03-16T04:50:38.203Z,7.18
2023-03-16T04:53:05.290Z,7.97
2023-03-16T04:55:32.757Z,7.18
2023-03-16T04:58:00.394Z,6.20
2023-03-16T05:00:32.083Z,8.32
2023-03-16T05:03:04.305Z,6.53
2023-03-16T05:05:31.216Z,5.68
2023-03-16T05:07:57.996Z,8.68
2023-03-16T05:10:27.649Z,6.68
2023-03-16T05:12:54.436Z,7.35
2023-03-16T05:15:21.353Z,5.97
2023-03-16T05:17:58.314Z,8.30
2023-03-16T05:20:26.272Z,7.70
2023-03-16T05:22:56.987Z,8.02
2023-03-16T05:25:29.881Z,6.45
2023-03-16T05:28:01.399Z,7.18
2023-03-16T05:30:54.368Z,9.98
2023-03-16T05:33:25.604Z,7.18
2023-03-16T05:35:59.054Z,6.22
2023-03-16T05:38:27.612Z,6.43
2023-03-16T05:40:55.365Z,8.05
2023-03-16T05:43:54.082Z,6.60
2023-03-16T05:46:24.115Z,7.40
2023-03-16T05:48:52.278Z,5.65
2023-03-16T05:51:20.577Z,6.03
2023-03-16T05:53:49.076Z,7.47
2023-03-16T05:56:26.711Z,5.85
2023-03-16T05:58:56.890Z,5.15
2023-03-16T06:01:24.892Z,7.40
2023-03-16T06:03:53.087Z,8.43
2023-03-16T06:06:23.505Z,7.45
2023-03-16T06:09:06.075Z,7.10
2023-03-16T06:11:33.038Z,6.47
2023-03-16T06:14:01.320Z,10.82
2023-03-16T06:16:28.436Z,6.72
2023-03-16T06:18:58.524Z,6.20
2023-03-16T06:21:26.845Z,6.78
2023-03-16T06:23:56.548Z,5.40
2023-03-16T06:26:24.588Z,7.53
2023-03-16T06:28:51.413Z,4.82
2023-03-16T06:31:18.626Z,4.63
2023-03-16T06:33:46.628Z,5.85
2023-03-16T06:36:13.597Z,6.05
2023-03-16T06:38:44.358Z,5.90
2023-03-16T06:41:22.629Z,7.65
2023-03-16T06:43:49.517Z,7.35
2023-03-16T06:46:16.778Z,5.38
2023-03-16T06:48:43.521Z,5.00
2023-03-16T06:51:10.201Z,7.72
2023-03-16T06:53:37.226Z,7.65
2023-03-16T06:56:04.137Z,7.05
2023-03-16T06:58:34.838Z,5.85
2023-03-16T07:01:05.459Z,7.57
2023-03-16T07:03:32.162Z,7.05
2023-03-16T07:06:06.069Z,5.80
2023-03-16T07:08:32.753Z,6.97
2023-03-16T07:10:59.678Z,5.85
2023-03-16T07:13:26.380Z,8.95
2023-03-16T07:15:54.499Z,7.90
2023-03-16T07:18:23.024Z,5.05
2023-03-16T07:20:50.061Z,6.40
2023-03-16T07:23:16.938Z,8.20
2023-03-16T07:25:44.681Z,4.28
2023-03-16T07:28:12.433Z,7.70
2023-03-16T07:30:50.552Z,5.50
2023-03-16T07:33:28.002Z,6.78
2023-03-16T07:35:54.909Z,7.10
2023-03-16T07:38:21.911Z,7.20
2023-03-16T07:40:49.733Z,9.90
2023-03-16T07:43:20.866Z,5.72
2023-03-16T07:45:51.537Z,7.88
2023-03-16T07:48:20.295Z,6.18
2023-03-16T07:50:56.802Z,4.53
2023-03-16T07:53:24.481Z,6.85
2023-03-16T07:56:02.174Z,6.38
2023-03-16T07:58:31.897Z,6.82
2023-03-16T08:00:59.739Z,4.65
2023-03-16T08:03:27.137Z,6.35
2023-03-16T08:05:55.203Z,7.18
2023-03-16T08:08:22.722Z,5.88
2023-03-16T08:10:52.454Z,5.55
2023-03-16T08:13:22.446Z,8.88
2023-03-16T08:15:58.341Z,6.10
2023-03-16T08:18:34.774Z,5.60
2023-03-16T08:21:01.572Z,7.20
2023-03-16T08:23:29.375Z,5.57
2023-03-16T08:25:57.914Z,7.15
2023-03-16T08:28:28.798Z,6.85
2023-03-16T08:30:58.486Z,8.15
2023-03-16T08:33:51.810Z,5.47
2023-03-16T08:36:22.137Z,7.88
2023-03-16T09:15:40.494Z,3.70
2023-03-16T09:23:21.275Z,6.25
2023-03-16T09:31:47.857Z,4.15
2023-03-16T09:38:13.306Z,4.90
2023-03-16T09:46:44.462Z,6.53
2023-03-16T09:50:30.032Z,2.90
2023-03-16T10:09:59.771Z,3.97
2023-03-16T10:32:50.901Z,4.15
2023-03-16T10:35:28.199Z,3.53
2023-03-16T10:37:56.680Z,3.95
2023-03-16T10:40:23.457Z,2.83
2023-03-16T10:42:50.399Z,3.33
2023-03-16T10:45:31.417Z,4.03
2023-03-16T10:48:19.683Z,4.20
2023-03-16T10:50:57.054Z,3.72
2023-03-16T10:53:34.055Z,3.15
2023-03-16T10:56:09.544Z,4.28
2023-03-16T10:58:42.530Z,3.97
2023-03-16T11:01:26.937Z,5.57
2023-03-16T11:03:57.031Z,4.20
2023-03-16T11:06:32.965Z,4.28
2023-03-16T11:09:12.729Z,2.10
2023-03-16T11:11:39.763Z,5.80
2023-03-16T11:14:15.367Z,6.22
2023-03-16T11:16:56.854Z,5.10
2023-03-16T11:19:33.236Z,2.63
2023-03-16T11:24:53.913Z,5.60
2023-03-16T11:27:37.469Z,5.47
2023-03-16T11:30:11.238Z,2.47
2023-03-16T11:32:41.512Z,2.58
2023-03-16T11:35:38.542Z,3.60
2023-03-16T11:38:20.718Z,1.75
2023-03-16T11:40:50.221Z,2.15
2023-03-16T11:43:31.747Z,2.20
2023-03-16T11:46:15.740Z,4.03
2023-03-16T11:48:57.747Z,2.30
2023-03-16T11:51:44.511Z,2.33
2023-03-16T11:54:29.044Z,2.85
2023-03-16T11:57:00.975Z,1.52
2023-03-16T11:59:55.500Z,4.35
2023-03-16T12:02:54.151Z,1.63
2023-03-16T12:05:36.456Z,3.58
2023-03-16T12:08:04.350Z,1.92
2023-03-16T12:11:02.291Z,3.58
2023-03-16T12:13:46.906Z,3.72
2023-03-16T12:16:22.580Z,2.30
2023-03-16T12:18:59.312Z,1.80
2023-03-16T12:21:33.200Z,1.77
2023-03-16T12:24:06.854Z,2.40
2023-03-16T12:26:38.660Z,1.85
2023-03-16T12:29:32.815Z,3.20
2023-03-16T12:32:16.033Z,3.53
2023-03-16T12:34:54.714Z,2.45
2023-03-16T12:38:07.753Z,2.50
2023-03-16T12:40:54.936Z,2.92
2023-03-16T12:43:31.889Z,2.30
2023-03-16T12:46:28.957Z,2.72
2023-03-16T12:49:04.868Z,2.50
2023-03-16T12:51:39.678Z,2.70
2023-03-16T12:54:17.457Z,2.65
2023-03-16T12:56:46.887Z,2.58
2023-03-16T12:59:22.711Z,1.60
2023-03-16T13:01:53.039Z,2.15
2023-03-16T13:04:23.693Z,2.60
2023-03-16T13:07:01.869Z,3.22
2023-03-16T13:09:32.560Z,1.20
2023-03-16T13:12:04.939Z,2.17
2023-03-16T13:14:54.850Z,1.63
2023-03-16T13:17:27.364Z,2.25
2023-03-16T13:20:01.822Z,3.85
2023-03-16T13:22:51.288Z,1.63
2023-03-16T13:25:45.616Z,2.92
2023-03-16T13:28:14.700Z,1.75
2023-03-16T13:30:49.164Z,1.70
2023-03-16T13:33:26.255Z,2.25
2023-03-16T13:35:56.046Z,2.65
2023-03-16T13:38:27.476Z,1.65
2023-03-16T13:40:56.787Z,3.35
2023-03-16T13:43:28.839Z,2.00
2023-03-16T13:45:56.345Z,1.60
2023-03-16T13:48:23.017Z,1.77
2023-03-16T13:50:54.391Z,3.30
2023-03-16T13:53:31.648Z,0.85
2023-03-16T13:56:02.160Z,1.88
2023-03-16T13:58:35.880Z,1.58
2023-03-16T14:01:05.190Z,2.63
2023-03-16T14:03:36.912Z,2.00
2023-03-16T14:06:05.823Z,1.55
2023-03-16T14:08:33.859Z,1.88
2023-03-16T14:11:01.703Z,1.88
2023-03-16T14:13:29.076Z,1.45
2023-03-16T14:16:00.199Z,1.95
2023-03-16T14:18:50.181Z,1.60
2023-03-16T14:21:23.730Z,3.78
2023-03-16T14:24:02.249Z,1.80
2023-03-16T14:26:40.389Z,1.48
2023-03-16T14:29:30.572Z,4.18
2023-03-16T14:31:59.027Z,2.70
2023-03-16T14:34:35.833Z,1.58
2023-03-16T14:37:20.996Z,3.00
2023-03-16T14:40:01.707Z,1.88
2023-03-16T14:42:30.703Z,2.20
2023-03-16T14:44:59.937Z,2.53
2023-03-16T14:47:30.896Z,2.60
2023-03-16T14:50:06.108Z,3.42
2023-03-16T14:52:33.947Z,2.00
2023-03-16T14:55:09.053Z,1.95
2023-03-16T14:57:36.411Z,2.75
2023-03-16T15:00:05.556Z,1.67
2023-03-16T15:02:33.347Z,1.27
2023-03-16T15:05:02.109Z,3.45
2023-03-16T15:07:30.492Z,2.15
2023-03-16T15:10:11.181Z,2.20
2023-03-16T15:12:37.956Z,1.50
2023-03-16T15:15:19.646Z,1.88
2023-03-16T15:17:46.971Z,2.83
2023-03-16T15:20:19.645Z,2.80
2023-03-16T15:22:48.198Z,2.83
2023-03-16T15:25:20.202Z,1.20
2023-03-16T15:27:48.020Z,2.15
2023-03-16T15:30:24.068Z,1.88
2023-03-16T15:32:50.864Z,3.40
2023-03-16T15:35:17.786Z,2.92
2023-03-16T15:37:44.691Z,3.20
2023-03-16T15:40:19.717Z,2.88
2023-03-16T15:42:47.070Z,3.95
2023-03-16T15:45:17.918Z,2.17
2023-03-16T15:47:45.078Z,2.35
2023-03-16T15:50:14.024Z,1.48
2023-03-16T15:52:47.017Z,2.55
2023-03-16T15:55:20.677Z,3.25
2023-03-16T15:57:58.702Z,2.22
2023-03-16T16:00:28.514Z,2.47
2023-03-16T16:02:57.889Z,2.97
2023-03-16T16:05:25.817Z,4.45
2023-03-16T16:07:53.362Z,4.00
2023-03-16T16:10:21.236Z,4.32
2023-03-16T16:12:51.553Z,2.55
2023-03-16T16:15:20.215Z,3.58
2023-03-16T16:18:06.138Z,3.30
2023-03-16T16:20:33.774Z,2.50
2023-03-16T16:23:03.047Z,4.43
2023-03-16T16:25:37.489Z,1.85
2023-03-16T16:28:23.542Z,2.53
2023-03-16T16:30:51.070Z,2.22
2023-03-16T16:33:36.131Z,2.65
2023-03-16T16:36:11.189Z,1.92
2023-03-16T16:38:37.855Z,3.40
2023-03-16T16:41:09.035Z,2.00
2023-03-16T16:43:44.103Z,2.53
2023-03-16T16:46:16.593Z,2.42
2023-03-16T16:48:46.707Z,4.18
2023-03-16T16:51:25.730Z,1.45
2023-03-16T16:53:55.118Z,3.17
2023-03-16T16:56:31.209Z,2.35
2023-03-16T16:59:01.500Z,3.20
2023-03-16T17:01:35.648Z,2.75
2023-03-16T17:04:02.826Z,4.97
2023-03-16T17:06:31.052Z,4.70
2023-03-16T17:08:57.716Z,2.38
2023-03-16T17:11:30.779Z,3.08
2023-03-16T17:14:02.609Z,1.85
2023-03-16T17:16:35.662Z,2.15
2023-03-16T17:19:03.774Z,5.82
2023-03-16T17:21:31.360Z,2.20
2023-03-16T17:23:58.425Z,3.55
2023-03-16T17:26:35.907Z,2.75
2023-03-16T17:29:13.048Z,2.92
2023-03-16T17:31:42.214Z,3.67
2023-03-16T17:34:24.737Z,3.42
2023-03-16T17:36:52.549Z,3.60
2023-03-16T17:39:30.510Z,3.00
2023-03-16T17:41:59.694Z,2.30
2023-03-16T17:44:31.710Z,1.92
2023-03-16T17:46:58.596Z,2.40
2023-03-16T17:49:28.386Z,3.40
2023-03-16T17:51:55.681Z,2.90
2023-03-16T17:54:22.351Z,3.63
2023-03-16T17:56:51.394Z,3.90
2023-03-16T17:59:21.101Z,2.47
2023-03-16T18:01:48.265Z,2.67
2023-03-16T18:04:24.054Z,3.47
2023-03-16T18:06:51.476Z,2.40
2023-03-16T18:09:20.549Z,2.97
2023-03-16T18:11:49.907Z,3.20
2023-03-16T18:14:35.130Z,3.42
2023-03-16T18:17:28.921Z,5.28
2023-03-16T18:19:55.640Z,2.60
2023-03-16T18:22:24.685Z,4.20
2023-03-16T18:24:55.271Z,4.63
2023-03-16T18:27:22.350Z,3.33
2023-03-16T18:29:49.229Z,9.13
2023-03-16T18:32:23.721Z,3.55
2023-03-16T18:34:52.424Z,3.28
2023-03-16T18:37:25.611Z,3.35
2023-03-16T18:39:53.158Z,4.15
2023-03-16T18:42:25.746Z,2.95
2023-03-16T18:44:52.621Z,2.67
2023-03-16T18:47:22.528Z,5.65
2023-03-16T18:49:53.396Z,4.13
2023-03-16T18:52:23.679Z,3.65
2023-03-16T18:54:51.463Z,3.47
2023-03-16T18:57:28.738Z,4.20
2023-03-16T18:59:55.480Z,2.83
2023-03-16T19:02:35.047Z,3.38
2023-03-16T19:05:04.947Z,2.55
2023-03-16T19:07:36.106Z,4.22
2023-03-16T19:10:18.579Z,3.67
2023-03-16T19:12:45.210Z,3.05
2023-03-16T19:15:19.965Z,3.53
2023-03-16T19:17:47.451Z,5.50
2023-03-16T19:20:16.625Z,4.55
2023-03-16T19:22:46.029Z,4.00
2023-03-16T19:25:25.736Z,4.75
2023-03-16T19:27:53.874Z,3.45
2023-03-16T19:30:24.502Z,4.07
2023-03-16T19:32:52.390Z,4.85
2023-03-16T19:35:20.723Z,4.85
2023-03-16T19:37:47.763Z,6.28
2023-03-16T19:40:17.211Z,6.63
2023-03-16T19:42:45.501Z,3.75
2023-03-16T19:45:33.197Z,6.55
2023-03-16T19:48:00.601Z,4.72
2023-03-16T19:50:28.668Z,4.38
2023-03-16T19:52:58.961Z,3.05
2023-03-16T19:55:31.579Z,4.05
2023-03-16T19:58:01.965Z,4.10
2023-03-16T20:00:30.156Z,2.83
2023-03-16T20:02:57.453Z,5.90
2023-03-16T20:05:26.874Z,3.88
2023-03-16T20:07:55.408Z,4.35
2023-03-16T20:10:24.668Z,3.60
2023-03-16T20:13:02.364Z,8.45
2023-03-16T20:15:34.332Z,5.00
2023-03-16T20:18:01.025Z,4.90
2023-03-16T20:20:30.889Z,4.88
2023-03-16T20:22:59.709Z,3.67
2023-03-16T20:25:31.483Z,4.65
2023-03-16T20:28:01.976Z,4.88
2023-03-16T20:30:29.841Z,3.08
2023-03-16T20:32:56.930Z,5.07
2023-03-16T20:35:26.335Z,4.30
2023-03-16T20:37:53.012Z,4.57
2023-03-16T20:40:21.753Z,4.45
2023-03-16T20:42:49.547Z,4.97
2023-03-16T20:45:25.736Z,4.45
2023-03-16T20:47:53.622Z,4.32
2023-03-16T20:50:25.727Z,4.63
2023-03-16T20:52:53.664Z,2.70
2023-03-16T20:55:23.396Z,3.75
2023-03-16T20:57:51.683Z,4.43
2023-03-16T21:00:19.300Z,5.25
2023-03-16T21:02:47.225Z,5.60
2023-03-16T21:05:15.799Z,6.47
2023-03-16T21:07:42.690Z,2.97
2023-03-16T21:10:11.583Z,4.47
2023-03-16T21:12:43.345Z,3.25
2023-03-16T21:15:30.660Z,3.00
2023-03-16T21:18:02.017Z,4.57
2023-03-16T21:20:31.978Z,5.40
2023-03-16T21:22:59.228Z,5.70
2023-03-16T21:25:39.068Z,3.00
2023-03-16T21:28:05.781Z,3.80
2023-03-16T21:30:47.884Z,3.65
2023-03-16T21:33:32.713Z,3.80
2023-03-16T21:36:00.385Z,3.83
2023-03-16T21:38:28.941Z,6.13
2023-03-16T21:40:56.003Z,3.85
2023-03-16T21:43:23.261Z,4.32
2023-03-16T21:45:51.849Z,4.50
2023-03-16T21:48:18.462Z,5.50
2023-03-16T21:50:45.270Z,3.65
2023-03-16T21:53:22.078Z,3.78
2023-03-16T21:55:50.795Z,3.63
2023-03-16T21:58:18.516Z,4.88
2023-03-16T22:00:46.799Z,3.90
2023-03-16T22:03:50.592Z,6.10
2023-03-16T22:06:17.922Z,4.28
2023-03-16T22:08:44.778Z,3.75
2023-03-16T22:11:20.829Z,3.55
2023-03-16T22:13:48.220Z,3.40
2023-03-16T22:16:17.884Z,5.47
2023-03-16T22:18:47.063Z,4.03
2023-03-16T22:21:34.279Z,5.15
2023-03-16T22:24:02.690Z,5.22
2023-03-16T22:26:29.732Z,3.85
2023-03-16T22:28:56.917Z,3.72
2023-03-16T22:31:34.175Z,3.95
2023-03-16T22:34:03.006Z,4.03
2023-03-16T22:36:31.593Z,6.28
2023-03-16T22:39:02.297Z,3.63
2023-03-16T22:41:30.089Z,4.45
2023-03-16T22:43:57.120Z,3.80
2023-03-16T22:46:26.333Z,4.53
2023-03-16T22:48:56.114Z,5.53
2023-03-16T22:51:28.341Z,3.78
2023-03-16T22:54:00.901Z,5.05
2023-03-16T22:56:29.924Z,4.05
2023-03-16T22:59:01.342Z,4.45
2023-03-16T23:01:35.156Z,3.13
2023-03-16T23:04:02.570Z,3.28
2023-03-16T23:06:32.152Z,4.43
2023-03-16T23:08:59.373Z,3.28
2023-03-16T23:11:29.796Z,3.72
2023-03-16T23:13:56.878Z,4.13
2023-03-16T23:16:33.769Z,3.35
2023-03-16T23:19:01.670Z,4.35
2023-03-16T23:21:30.264Z,5.55
2023-03-16T23:24:04.108Z,7.00
2023-03-16T23:26:32.042Z,2.90
2023-03-16T23:28:59.763Z,4.00
2023-03-16T23:31:27.689Z,3.95
2023-03-16T23:33:54.568Z,3.60
2023-03-16T23:36:24.391Z,3.42
2023-03-16T23:38:51.162Z,5.30
2023-03-16T23:41:23.671Z,4.35
2023-03-16T23:43:51.207Z,4.45
2023-03-16T23:46:21.397Z,3.45
2023-03-16T23:48:49.842Z,4.35
2023-03-16T23:51:32.088Z,5.57
2023-03-16T23:53:59.258Z,3.35
2023-03-16T23:56:27.098Z,5.25
2023-03-16T23:58:54.795Z,4.20
